createdAt,value
2018-05-26T00:00:30.976Z,22.85
2018-05-26T00:01:02.578Z,22.84
2018-05-26T00:01:34.164Z,22.85
2018-05-26T00:02:05.759Z,22.84
2018-05-26T00:02:37.346Z,22.85
2018-05-26T00:03:08.957Z,22.86
2018-05-26T00:03:40.543Z,22.85
2018-05-26T00:04:12.140Z,22.84
2018-05-26T00:04:43.751Z,22.84
2018-05-26T00:05:15.378Z,22.84
2018-05-26T00:05:46.956Z,22.84
2018-05-26T00:06:18.569Z,22.85
2018-05-26T00:06:50.170Z,22.83
2018-05-26T00:07:21.758Z,22.84
2018-05-26T00:07:53.361Z,22.82
2018-05-26T00:08:24.949Z,22.82
2018-05-26T00:08:56.534Z,22.84
2018-05-26T00:09:28.100Z,22.84
2018-05-26T00:09:59.668Z,22.84
2018-05-26T00:10:31.250Z,22.84
2018-05-26T00:11:02.909Z,22.84
2018-05-26T00:11:34.518Z,22.82
2018-05-26T00:12:06.097Z,22.84
2018-05-26T00:12:37.695Z,22.84
2018-05-26T00:13:09.306Z,22.83
2018-05-26T00:13:40.919Z,22.85
2018-05-26T00:14:12.517Z,22.83
2018-05-26T00:14:44.116Z,22.84
2018-05-26T00:15:15.707Z,22.84
2018-05-26T00:15:47.318Z,22.83
2018-05-26T00:16:18.966Z,22.83
2018-05-26T00:16:50.549Z,22.83
2018-05-26T00:17:22.162Z,22.84
2018-05-26T00:17:53.754Z,22.83
2018-05-26T00:18:25.355Z,22.83
2018-05-26T00:18:57.010Z,22.84
2018-05-26T00:19:28.604Z,22.84
2018-05-26T00:20:00.218Z,22.84
2018-05-26T00:20:31.830Z,22.84
2018-05-26T00:21:03.412Z,22.84
2018-05-26T00:21:34.980Z,22.83
2018-05-26T00:22:06.568Z,22.84
2018-05-26T00:22:38.165Z,22.84
2018-05-26T00:23:09.814Z,22.85
2018-05-26T00:23:41.438Z,22.84
2018-05-26T00:24:13.041Z,22.85
2018-05-26T00:24:44.653Z,22.85
2018-05-26T00:25:16.247Z,22.85
2018-05-26T00:25:47.848Z,22.86
2018-05-26T00:26:19.420Z,22.86
2018-05-26T00:26:50.987Z,22.87
2018-05-26T00:27:22.579Z,22.86
2018-05-26T00:27:54.226Z,22.86
2018-05-26T00:28:25.832Z,22.86
2018-05-26T00:28:57.418Z,22.86
2018-05-26T00:29:29.026Z,22.84
2018-05-26T00:30:00.614Z,22.84
2018-05-26T00:30:32.193Z,22.84
2018-05-26T00:31:03.775Z,22.84
2018-05-26T00:31:35.348Z,22.85
2018-05-26T00:32:06.954Z,22.84
2018-05-26T00:32:38.566Z,22.84
2018-05-26T00:33:10.193Z,22.84
2018-05-26T00:33:41.781Z,22.83
2018-05-26T00:34:13.366Z,22.83
2018-05-26T00:34:44.955Z,22.82
2018-05-26T00:35:16.552Z,22.83
2018-05-26T00:35:48.139Z,22.82
2018-05-26T00:36:19.761Z,22.72
2018-05-26T00:36:51.365Z,22.81
2018-05-26T00:37:22.954Z,22.81
2018-05-26T00:37:54.554Z,22.81
2018-05-26T00:38:26.165Z,22.80
2018-05-26T00:38:57.765Z,22.80
2018-05-26T00:39:29.350Z,22.80
2018-05-26T00:40:00.934Z,22.80
2018-05-26T00:40:32.518Z,22.79
2018-05-26T00:41:04.102Z,22.79
2018-05-26T00:41:35.745Z,22.79
2018-05-26T00:42:07.344Z,22.79
2018-05-26T00:42:38.920Z,22.79
2018-05-26T00:43:10.500Z,22.79
2018-05-26T00:43:42.106Z,22.78
2018-05-26T00:44:13.736Z,22.78
2018-05-26T00:44:45.348Z,22.78
2018-05-26T00:45:17.030Z,22.78
2018-05-26T00:45:48.633Z,22.78
2018-05-26T00:46:20.229Z,22.78
2018-05-26T00:46:51.894Z,22.78
2018-05-26T00:47:23.465Z,22.78
2018-05-26T00:47:55.056Z,22.78
2018-05-26T00:48:26.641Z,22.78
2018-05-26T00:48:58.278Z,22.77
2018-05-26T00:49:29.920Z,22.77
2018-05-26T00:50:01.526Z,22.77
2018-05-26T00:50:33.113Z,22.77
2018-05-26T00:51:04.697Z,22.77
2018-05-26T00:51:36.306Z,22.76
2018-05-26T00:52:07.913Z,22.76
2018-05-26T00:52:39.492Z,22.77
2018-05-26T00:53:11.098Z,22.76
2018-05-26T00:53:42.754Z,22.76
2018-05-26T00:54:14.331Z,22.76
2018-05-26T00:54:45.908Z,22.77
2018-05-26T00:55:17.565Z,22.77
2018-05-26T00:55:49.174Z,22.77
2018-05-26T00:56:20.762Z,22.77
2018-05-26T00:56:52.338Z,22.77
2018-05-26T00:57:23.918Z,22.76
2018-05-26T00:57:55.509Z,22.77
2018-05-26T00:58:27.118Z,22.77
2018-05-26T00:58:58.692Z,22.77
2018-05-26T00:59:30.288Z,22.69
2018-05-26T01:00:01.871Z,22.75
2018-05-26T01:00:34.292Z,22.76
2018-05-26T01:01:05.877Z,22.76
2018-05-26T01:01:37.789Z,22.76
2018-05-26T01:02:09.368Z,22.76
2018-05-26T01:02:40.960Z,22.75
2018-05-26T01:03:12.533Z,22.76
2018-05-26T01:03:44.142Z,22.76
2018-05-26T01:04:15.762Z,22.76
2018-05-26T01:04:47.351Z,22.75
2018-05-26T01:05:18.954Z,22.75
2018-05-26T01:05:50.604Z,22.75
2018-05-26T01:06:22.214Z,22.75
2018-05-26T01:06:53.792Z,22.75
2018-05-26T01:07:25.394Z,22.76
2018-05-26T01:07:57.002Z,22.77
2018-05-26T01:08:28.594Z,22.76
2018-05-26T01:09:00.178Z,22.77
2018-05-26T01:09:31.785Z,22.78
2018-05-26T01:10:03.398Z,22.79
2018-05-26T01:10:35.011Z,22.79
2018-05-26T01:11:06.638Z,22.79
2018-05-26T01:11:38.232Z,22.79
2018-05-26T01:12:09.818Z,22.79
2018-05-26T01:12:41.392Z,22.79
2018-05-26T01:13:12.985Z,22.79
2018-05-26T01:13:44.660Z,22.79
2018-05-26T01:14:16.242Z,22.79
2018-05-26T01:14:47.845Z,22.79
2018-05-26T01:15:19.441Z,22.80
2018-05-26T01:15:51.052Z,22.80
2018-05-26T01:16:22.664Z,22.80
2018-05-26T01:16:54.232Z,22.80
2018-05-26T01:17:25.842Z,22.79
2018-05-26T01:17:57.441Z,22.79
2018-05-26T01:18:29.026Z,22.79
2018-05-26T01:19:00.606Z,22.80
2018-05-26T01:19:32.209Z,22.79
2018-05-26T01:20:03.794Z,22.80
2018-05-26T01:20:35.374Z,22.80
2018-05-26T01:21:07.018Z,22.80
2018-05-26T01:21:38.630Z,22.80
2018-05-26T01:22:10.236Z,22.80
2018-05-26T01:22:41.933Z,22.79
2018-05-26T01:23:13.532Z,22.79
2018-05-26T01:23:45.104Z,22.80
2018-05-26T01:24:16.706Z,22.79
2018-05-26T01:24:48.308Z,22.78
2018-05-26T01:25:19.949Z,22.78
2018-05-26T01:25:51.553Z,22.78
2018-05-26T01:26:23.149Z,22.78
2018-05-26T01:26:54.720Z,22.77
2018-05-26T01:27:26.298Z,22.78
2018-05-26T01:27:57.902Z,22.78
2018-05-26T01:28:29.490Z,22.77
2018-05-26T01:29:01.094Z,22.77
2018-05-26T01:29:32.792Z,22.78
2018-05-26T01:30:04.413Z,22.78
2018-05-26T01:30:35.988Z,22.77
2018-05-26T01:31:07.597Z,22.77
2018-05-26T01:31:39.176Z,22.77
2018-05-26T01:32:10.767Z,22.77
2018-05-26T01:32:42.343Z,22.77
2018-05-26T01:33:13.913Z,22.76
2018-05-26T01:33:45.490Z,22.76
2018-05-26T01:34:17.120Z,22.75
2018-05-26T01:34:48.726Z,22.76
2018-05-26T01:35:20.348Z,22.76
2018-05-26T01:35:51.930Z,22.76
2018-05-26T01:36:23.500Z,22.76
2018-05-26T01:36:55.096Z,22.76
2018-05-26T01:37:26.685Z,22.76
2018-05-26T01:37:58.299Z,22.76
2018-05-26T01:38:29.882Z,22.76
2018-05-26T01:39:01.466Z,22.76
2018-05-26T01:39:33.032Z,22.76
2018-05-26T01:40:04.644Z,22.76
2018-05-26T01:40:36.245Z,22.75
2018-05-26T01:41:07.850Z,22.76
2018-05-26T01:41:39.461Z,22.76
2018-05-26T01:42:11.061Z,22.76
2018-05-26T01:42:42.649Z,22.73
2018-05-26T01:43:14.253Z,22.76
2018-05-26T01:43:45.827Z,22.76
2018-05-26T01:44:17.410Z,22.76
2018-05-26T01:44:49.018Z,22.75
2018-05-26T01:45:20.667Z,22.76
2018-05-26T01:45:52.264Z,22.75
2018-05-26T01:46:23.874Z,22.76
2018-05-26T01:46:55.483Z,22.76
2018-05-26T01:47:27.070Z,22.74
2018-05-26T01:47:58.640Z,22.75
2018-05-26T01:48:30.246Z,22.75
2018-05-26T01:49:01.841Z,22.75
2018-05-26T01:49:33.430Z,22.75
2018-05-26T01:50:05.035Z,22.75
2018-05-26T01:50:36.657Z,22.75
2018-05-26T01:51:08.236Z,22.75
2018-05-26T01:51:39.818Z,22.74
2018-05-26T01:52:11.388Z,22.74
2018-05-26T01:52:42.991Z,22.75
2018-05-26T01:53:14.574Z,22.75
2018-05-26T01:53:46.158Z,22.76
2018-05-26T01:54:17.761Z,22.75
2018-05-26T01:54:49.350Z,22.75
2018-05-26T01:55:20.930Z,22.75
2018-05-26T01:55:52.556Z,22.75
2018-05-26T01:56:24.139Z,22.75
2018-05-26T01:56:55.741Z,22.76
2018-05-26T01:57:27.316Z,22.76
2018-05-26T01:57:58.915Z,22.76
2018-05-26T01:58:30.522Z,22.76
2018-05-26T01:59:02.125Z,22.76
2018-05-26T01:59:33.725Z,22.76
2018-05-26T02:00:05.334Z,22.76
2018-05-26T02:00:36.966Z,22.75
2018-05-26T02:01:08.550Z,22.76
2018-05-26T02:01:40.159Z,22.76
2018-05-26T02:02:11.778Z,22.76
2018-05-26T02:02:43.389Z,22.76
2018-05-26T02:03:14.964Z,22.76
2018-05-26T02:03:46.536Z,22.77
2018-05-26T02:04:18.120Z,22.77
2018-05-26T02:04:49.746Z,22.75
2018-05-26T02:05:21.317Z,22.76
2018-05-26T02:05:52.920Z,22.77
2018-05-26T02:06:24.503Z,22.76
2018-05-26T02:06:56.085Z,22.77
2018-05-26T02:07:27.675Z,22.78
2018-05-26T02:07:59.286Z,22.77
2018-05-26T02:08:30.898Z,22.77
2018-05-26T02:09:02.532Z,22.76
2018-05-26T02:09:34.126Z,22.79
2018-05-26T02:10:05.697Z,22.80
2018-05-26T02:10:37.302Z,22.79
2018-05-26T02:11:08.914Z,22.80
2018-05-26T02:11:40.488Z,22.81
2018-05-26T02:12:12.073Z,22.81
2018-05-26T02:12:43.660Z,22.81
2018-05-26T02:13:15.247Z,22.83
2018-05-26T02:13:46.858Z,22.83
2018-05-26T02:14:18.486Z,22.84
2018-05-26T02:14:50.070Z,22.85
2018-05-26T02:15:21.669Z,22.86
2018-05-26T02:15:53.254Z,22.86
2018-05-26T02:16:24.838Z,22.88
2018-05-26T02:16:56.428Z,22.89
2018-05-26T02:17:28.038Z,22.90
2018-05-26T02:17:59.622Z,22.90
2018-05-26T02:18:31.230Z,22.91
2018-05-26T02:19:02.838Z,22.90
2018-05-26T02:19:34.463Z,22.92
2018-05-26T02:20:06.047Z,22.96
2018-05-26T02:20:37.617Z,22.96
2018-05-26T02:21:09.202Z,22.98
2018-05-26T02:21:40.796Z,22.98
2018-05-26T02:22:12.380Z,23.00
2018-05-26T02:22:43.966Z,23.00
2018-05-26T02:23:15.546Z,23.02
2018-05-26T02:23:47.139Z,23.02
2018-05-26T02:24:18.774Z,23.03
2018-05-26T02:24:50.402Z,23.05
2018-05-26T02:25:22.006Z,23.05
2018-05-26T02:25:53.594Z,23.03
2018-05-26T02:26:25.178Z,23.01
2018-05-26T02:26:56.748Z,23.03
2018-05-26T02:27:28.316Z,23.03
2018-05-26T02:27:59.898Z,23.03
2018-05-26T02:28:31.464Z,23.06
2018-05-26T02:29:03.046Z,23.08
2018-05-26T02:29:34.630Z,23.06
2018-05-26T02:30:06.214Z,23.06
2018-05-26T02:30:37.835Z,23.06
2018-05-26T02:31:09.415Z,23.05
2018-05-26T02:31:41.008Z,23.05
2018-05-26T02:32:12.605Z,23.04
2018-05-26T02:32:44.185Z,23.05
2018-05-26T02:33:15.752Z,23.04
2018-05-26T02:33:47.320Z,23.06
2018-05-26T02:34:18.907Z,23.02
2018-05-26T02:34:50.525Z,23.02
2018-05-26T02:35:22.101Z,23.01
2018-05-26T02:35:53.704Z,23.02
2018-05-26T02:36:25.291Z,23.02
2018-05-26T02:36:56.906Z,23.02
2018-05-26T02:37:28.491Z,23.02
2018-05-26T02:38:00.085Z,23.02
2018-05-26T02:38:31.673Z,23.02
2018-05-26T02:39:03.257Z,23.00
2018-05-26T02:39:34.862Z,22.98
2018-05-26T02:40:06.450Z,22.98
2018-05-26T02:40:38.069Z,22.98
2018-05-26T02:41:09.687Z,22.98
2018-05-26T02:41:41.352Z,22.97
2018-05-26T02:42:12.957Z,22.96
2018-05-26T02:42:44.542Z,22.94
2018-05-26T02:43:16.137Z,22.94
2018-05-26T02:43:47.722Z,22.94
2018-05-26T02:44:19.302Z,22.93
2018-05-26T02:44:50.891Z,22.93
2018-05-26T02:45:22.494Z,22.93
2018-05-26T02:45:54.110Z,22.92
2018-05-26T02:46:25.728Z,22.92
2018-05-26T02:46:57.300Z,22.91
2018-05-26T02:47:28.919Z,22.92
2018-05-26T02:48:00.519Z,22.91
2018-05-26T02:48:32.092Z,22.91
2018-05-26T02:49:03.694Z,22.90
2018-05-26T02:49:35.278Z,22.90
2018-05-26T02:50:06.882Z,22.90
2018-05-26T02:50:38.485Z,22.91
2018-05-26T02:51:10.122Z,22.91
2018-05-26T02:51:41.706Z,22.90
2018-05-26T02:52:13.310Z,22.89
2018-05-26T02:52:44.885Z,22.89
2018-05-26T02:53:16.476Z,22.89
2018-05-26T02:53:48.077Z,22.89
2018-05-26T02:54:19.672Z,22.89
2018-05-26T02:54:51.272Z,22.90
2018-05-26T02:55:22.857Z,22.90
2018-05-26T02:55:54.462Z,22.89
2018-05-26T02:56:26.096Z,22.88
2018-05-26T02:56:57.755Z,22.89
2018-05-26T02:57:29.390Z,22.88
2018-05-26T02:58:00.998Z,22.88
2018-05-26T02:58:32.606Z,22.87
2018-05-26T02:59:04.194Z,22.87
2018-05-26T02:59:35.791Z,22.87
2018-05-26T03:00:07.401Z,22.86
2018-05-26T03:00:38.996Z,22.87
2018-05-26T03:01:10.582Z,22.86
2018-05-26T03:01:42.161Z,22.85
2018-05-26T03:02:13.753Z,22.87
2018-05-26T03:02:45.363Z,22.87
2018-05-26T03:03:16.950Z,22.86
2018-05-26T03:03:48.052Z,22.86
2018-05-26T03:04:25.315Z,22.86
2018-05-26T03:05:02.562Z,22.86
2018-05-26T03:05:39.810Z,22.87
2018-05-26T03:06:17.058Z,22.86
2018-05-26T03:06:54.296Z,22.86
2018-05-26T03:07:31.612Z,22.87
2018-05-26T03:08:08.882Z,22.87
2018-05-26T03:08:46.154Z,22.87
2018-05-26T03:09:23.540Z,22.87
2018-05-26T03:10:00.954Z,22.87
2018-05-26T03:10:38.204Z,22.87
2018-05-26T03:11:15.442Z,22.87
2018-05-26T03:11:52.842Z,22.87
2018-05-26T03:12:30.228Z,22.87
2018-05-26T03:13:07.563Z,22.86
2018-05-26T03:13:44.814Z,22.87
2018-05-26T03:14:22.072Z,22.87
2018-05-26T03:14:53.221Z,22.86
2018-05-26T03:15:24.330Z,22.86
2018-05-26T03:16:01.606Z,22.87
2018-05-26T03:16:36.686Z,22.86
2018-05-26T03:17:09.268Z,22.87
2018-05-26T03:17:46.711Z,22.86
2018-05-26T03:18:18.371Z,22.86
2018-05-26T03:18:49.982Z,22.85
2018-05-26T03:19:21.590Z,22.85
2018-05-26T03:19:53.183Z,22.85
2018-05-26T03:20:24.828Z,22.85
2018-05-26T03:20:56.396Z,22.85
2018-05-26T03:21:27.997Z,22.85
2018-05-26T03:21:59.583Z,22.84
2018-05-26T03:22:31.186Z,22.84
2018-05-26T03:23:02.769Z,22.84
2018-05-26T03:23:34.416Z,22.83
2018-05-26T03:24:05.996Z,22.84
2018-05-26T03:24:37.588Z,22.84
2018-05-26T03:25:09.169Z,22.85
2018-05-26T03:25:40.773Z,22.84
2018-05-26T03:26:12.349Z,22.85
2018-05-26T03:26:43.928Z,22.83
2018-05-26T03:27:15.530Z,22.83
2018-05-26T03:27:47.104Z,22.84
2018-05-26T03:28:18.699Z,22.83
2018-05-26T03:28:50.361Z,22.83
2018-05-26T03:29:21.971Z,22.83
2018-05-26T03:29:53.575Z,22.84
2018-05-26T03:30:25.158Z,22.83
2018-05-26T03:30:56.752Z,22.84
2018-05-26T03:31:28.334Z,22.84
2018-05-26T03:31:59.960Z,22.84
2018-05-26T03:32:31.546Z,22.83
2018-05-26T03:33:03.153Z,22.83
2018-05-26T03:33:34.732Z,22.84
2018-05-26T03:34:06.338Z,22.83
2018-05-26T03:34:37.921Z,22.83
2018-05-26T03:35:09.530Z,22.83
2018-05-26T03:35:41.137Z,22.83
2018-05-26T03:36:12.721Z,22.83
2018-05-26T03:36:44.335Z,22.83
2018-05-26T03:37:15.921Z,22.83
2018-05-26T03:37:47.488Z,22.83
2018-05-26T03:38:19.090Z,22.84
2018-05-26T03:38:50.697Z,22.84
2018-05-26T03:39:22.325Z,22.82
2018-05-26T03:39:53.948Z,22.84
2018-05-26T03:40:25.559Z,22.83
2018-05-26T03:40:57.146Z,22.83
2018-05-26T03:41:28.750Z,22.84
2018-05-26T03:42:00.334Z,22.83
2018-05-26T03:42:31.918Z,22.83
2018-05-26T03:43:03.523Z,22.86
2018-05-26T03:43:35.120Z,22.85
2018-05-26T03:44:06.734Z,22.86
2018-05-26T03:44:38.326Z,22.87
2018-05-26T03:45:09.901Z,22.88
2018-05-26T03:45:41.486Z,22.89
2018-05-26T03:46:13.090Z,22.89
2018-05-26T03:46:44.678Z,22.90
2018-05-26T03:47:16.261Z,22.91
2018-05-26T03:47:47.828Z,22.91
2018-05-26T03:48:19.413Z,22.92
2018-05-26T03:48:50.984Z,22.91
2018-05-26T03:49:22.593Z,22.93
2018-05-26T03:49:54.164Z,22.94
2018-05-26T03:50:25.808Z,22.95
2018-05-26T03:50:57.413Z,22.95
2018-05-26T03:51:29.021Z,22.96
2018-05-26T03:52:00.611Z,22.97
2018-05-26T03:52:32.184Z,23.00
2018-05-26T03:53:03.786Z,23.03
2018-05-26T03:53:35.375Z,23.04
2018-05-26T03:54:06.982Z,23.07
2018-05-26T03:54:38.581Z,23.08
2018-05-26T03:55:10.171Z,23.10
2018-05-26T03:55:41.811Z,23.11
2018-05-26T03:56:13.398Z,23.12
2018-05-26T03:56:44.991Z,23.14
2018-05-26T03:57:16.608Z,23.14
2018-05-26T03:57:48.194Z,23.15
2018-05-26T03:58:19.764Z,23.16
2018-05-26T03:58:51.350Z,23.16
2018-05-26T03:59:22.930Z,23.17
2018-05-26T03:59:54.510Z,23.18
2018-05-26T04:00:26.158Z,23.17
2018-05-26T04:00:57.746Z,23.19
2018-05-26T04:01:29.326Z,23.19
2018-05-26T04:02:00.906Z,23.19
2018-05-26T04:02:32.494Z,23.20
2018-05-26T04:03:04.108Z,23.22
2018-05-26T04:03:35.684Z,23.21
2018-05-26T04:04:07.266Z,23.22
2018-05-26T04:04:38.870Z,23.21
2018-05-26T04:05:10.502Z,23.21
2018-05-26T04:05:42.085Z,23.23
2018-05-26T04:06:13.652Z,23.24
2018-05-26T04:06:45.282Z,23.25
2018-05-26T04:07:16.861Z,23.25
2018-05-26T04:07:48.470Z,23.28
2018-05-26T04:08:20.058Z,23.32
2018-05-26T04:08:51.642Z,23.41
2018-05-26T04:09:23.231Z,23.52
2018-05-26T04:09:54.828Z,23.67
2018-05-26T04:10:26.413Z,23.79
2018-05-26T04:10:58.024Z,23.95
2018-05-26T04:11:29.605Z,24.09
2018-05-26T04:12:01.190Z,24.23
2018-05-26T04:12:32.783Z,24.35
2018-05-26T04:13:04.464Z,24.46
2018-05-26T04:13:36.058Z,24.58
2018-05-26T04:14:07.646Z,24.66
2018-05-26T04:14:39.240Z,24.73
2018-05-26T04:15:10.854Z,24.79
2018-05-26T04:15:42.509Z,24.84
2018-05-26T04:16:14.121Z,24.88
2018-05-26T04:16:45.710Z,24.93
2018-05-26T04:17:17.304Z,25.00
2018-05-26T04:17:48.894Z,25.07
2018-05-26T04:18:20.476Z,25.17
2018-05-26T04:18:52.072Z,25.24
2018-05-26T04:19:23.690Z,25.36
2018-05-26T04:19:55.301Z,25.46
2018-05-26T04:20:26.909Z,25.57
2018-05-26T04:20:58.559Z,25.68
2018-05-26T04:21:30.169Z,25.76
2018-05-26T04:22:01.818Z,25.83
2018-05-26T04:22:33.405Z,25.81
2018-05-26T04:23:05.010Z,25.84
2018-05-26T04:23:36.622Z,25.83
2018-05-26T04:24:08.197Z,25.83
2018-05-26T04:24:39.790Z,25.83
2018-05-26T04:25:11.364Z,25.80
2018-05-26T04:25:42.970Z,25.76
2018-05-26T04:26:14.592Z,25.74
2018-05-26T04:26:46.167Z,25.67
2018-05-26T04:27:17.778Z,25.66
2018-05-26T04:27:49.362Z,25.64
2018-05-26T04:28:20.970Z,25.62
2018-05-26T04:28:52.556Z,25.59
2018-05-26T04:29:24.170Z,25.61
2018-05-26T04:29:55.766Z,25.62
2018-05-26T04:30:27.338Z,25.66
2018-05-26T04:30:58.924Z,25.68
2018-05-26T04:31:30.565Z,25.73
2018-05-26T04:32:02.170Z,25.79
2018-05-26T04:32:33.772Z,25.85
2018-05-26T04:33:05.358Z,25.92
2018-05-26T04:33:36.943Z,25.94
2018-05-26T04:34:08.526Z,26.04
2018-05-26T04:34:40.111Z,26.10
2018-05-26T04:35:11.722Z,26.16
2018-05-26T04:35:43.305Z,26.23
2018-05-26T04:36:14.886Z,26.26
2018-05-26T04:36:46.501Z,26.32
2018-05-26T04:37:18.150Z,26.36
2018-05-26T04:37:49.765Z,26.43
2018-05-26T04:38:21.384Z,26.44
2018-05-26T04:38:52.959Z,26.42
2018-05-26T04:39:24.566Z,26.38
2018-05-26T04:39:56.140Z,26.38
2018-05-26T04:40:27.732Z,26.34
2018-05-26T04:40:59.322Z,26.34
2018-05-26T04:41:30.919Z,26.32
2018-05-26T04:42:02.573Z,26.28
2018-05-26T04:42:34.172Z,26.21
2018-05-26T04:43:05.783Z,26.15
2018-05-26T04:43:37.374Z,26.11
2018-05-26T04:44:08.962Z,26.07
2018-05-26T04:44:40.546Z,26.05
2018-05-26T04:45:12.150Z,25.97
2018-05-26T04:45:43.757Z,25.85
2018-05-26T04:46:15.337Z,25.81
2018-05-26T04:46:46.946Z,25.75
2018-05-26T04:47:18.578Z,25.73
2018-05-26T04:47:50.171Z,25.68
2018-05-26T04:48:21.833Z,25.72
2018-05-26T04:48:53.430Z,25.74
2018-05-26T04:49:25.035Z,25.64
2018-05-26T04:49:56.629Z,25.58
2018-05-26T04:50:28.214Z,25.50
2018-05-26T04:50:59.793Z,25.35
2018-05-26T04:51:31.374Z,25.19
2018-05-26T04:52:02.981Z,25.00
2018-05-26T04:52:34.581Z,24.95
2018-05-26T04:53:06.156Z,24.86
2018-05-26T04:53:37.834Z,24.75
2018-05-26T04:54:09.426Z,24.65
2018-05-26T04:54:41.039Z,24.59
2018-05-26T04:55:12.654Z,24.48
2018-05-26T04:55:44.227Z,24.42
2018-05-26T04:56:15.838Z,24.32
2018-05-26T04:56:47.436Z,24.24
2018-05-26T04:57:19.050Z,24.13
2018-05-26T04:57:50.641Z,24.09
2018-05-26T04:58:22.222Z,24.02
2018-05-26T04:58:53.860Z,23.97
2018-05-26T04:59:25.475Z,23.95
2018-05-26T04:59:57.087Z,23.87
2018-05-26T05:00:28.664Z,23.82
2018-05-26T05:01:00.242Z,23.78
2018-05-26T05:01:31.826Z,23.75
2018-05-26T05:02:03.434Z,23.71
2018-05-26T05:02:35.026Z,23.71
2018-05-26T05:03:06.634Z,23.70
2018-05-26T05:03:38.217Z,23.68
2018-05-26T05:04:09.828Z,23.65
2018-05-26T05:04:41.474Z,23.63
2018-05-26T05:05:13.062Z,23.54
2018-05-26T05:05:44.682Z,23.59
2018-05-26T05:06:16.238Z,23.56
2018-05-26T05:06:47.842Z,23.56
2018-05-26T05:07:19.417Z,23.54
2018-05-26T05:07:50.989Z,23.52
2018-05-26T05:08:22.574Z,23.50
2018-05-26T05:08:54.181Z,23.51
2018-05-26T05:09:25.793Z,23.50
2018-05-26T05:09:57.398Z,23.50
2018-05-26T05:10:28.988Z,23.48
2018-05-26T05:11:00.594Z,23.48
2018-05-26T05:11:32.178Z,23.47
2018-05-26T05:12:03.782Z,23.47
2018-05-26T05:12:35.377Z,23.45
2018-05-26T05:13:06.991Z,23.45
2018-05-26T05:13:38.605Z,23.44
2018-05-26T05:14:10.190Z,23.40
2018-05-26T05:14:41.789Z,23.41
2018-05-26T05:15:13.374Z,23.40
2018-05-26T05:15:45.006Z,23.39
2018-05-26T05:16:16.610Z,23.38
2018-05-26T05:16:48.194Z,23.35
2018-05-26T05:17:19.797Z,23.36
2018-05-26T05:17:51.482Z,23.36
2018-05-26T05:18:23.071Z,23.35
2018-05-26T05:18:54.678Z,23.36
2018-05-26T05:19:26.266Z,23.35
2018-05-26T05:19:57.894Z,23.35
2018-05-26T05:20:29.497Z,23.33
2018-05-26T05:21:01.082Z,23.33
2018-05-26T05:21:32.686Z,23.33
2018-05-26T05:22:04.278Z,23.33
2018-05-26T05:22:35.881Z,23.33
2018-05-26T05:23:07.485Z,23.32
2018-05-26T05:23:39.066Z,23.32
2018-05-26T05:24:10.730Z,23.31
2018-05-26T05:24:42.365Z,23.31
2018-05-26T05:25:13.994Z,23.31
2018-05-26T05:25:45.569Z,23.30
2018-05-26T05:26:17.163Z,23.30
2018-05-26T05:26:48.799Z,23.30
2018-05-26T05:27:20.346Z,23.30
2018-05-26T05:27:51.930Z,23.31
2018-05-26T05:28:23.513Z,23.30
2018-05-26T05:28:55.084Z,23.30
2018-05-26T05:29:26.685Z,23.31
2018-05-26T05:29:58.293Z,23.30
2018-05-26T05:30:29.904Z,23.29
2018-05-26T05:31:01.473Z,23.30
2018-05-26T05:31:33.058Z,23.30
2018-05-26T05:32:04.636Z,23.29
2018-05-26T05:32:36.249Z,23.30
2018-05-26T05:33:07.855Z,23.31
2018-05-26T05:33:39.448Z,23.34
2018-05-26T05:34:11.052Z,23.32
2018-05-26T05:34:42.632Z,23.30
2018-05-26T05:35:14.266Z,23.29
2018-05-26T05:35:45.846Z,23.28
2018-05-26T05:36:17.454Z,23.28
2018-05-26T05:36:49.056Z,23.27
2018-05-26T05:37:20.651Z,23.28
2018-05-26T05:37:52.242Z,23.27
2018-05-26T05:38:23.853Z,23.25
2018-05-26T05:38:55.494Z,23.26
2018-05-26T05:39:27.102Z,23.26
2018-05-26T05:39:58.685Z,23.25
2018-05-26T05:40:30.269Z,23.25
2018-05-26T05:41:01.866Z,23.25
2018-05-26T05:41:33.455Z,23.25
2018-05-26T05:42:05.061Z,23.24
2018-05-26T05:42:36.634Z,23.23
2018-05-26T05:43:08.214Z,23.23
2018-05-26T05:43:39.817Z,23.23
2018-05-26T05:44:11.430Z,23.22
2018-05-26T05:44:43.029Z,23.21
2018-05-26T05:45:14.634Z,23.21
2018-05-26T05:45:46.218Z,23.21
2018-05-26T05:46:17.791Z,23.21
2018-05-26T05:46:49.393Z,23.21
2018-05-26T05:47:20.973Z,23.19
2018-05-26T05:47:52.554Z,23.21
2018-05-26T05:48:24.134Z,23.21
2018-05-26T05:48:55.752Z,23.20
2018-05-26T05:49:27.358Z,23.21
2018-05-26T05:49:58.965Z,23.21
2018-05-26T05:50:30.536Z,23.20
2018-05-26T05:51:02.122Z,23.20
2018-05-26T05:51:33.703Z,23.19
2018-05-26T05:52:05.269Z,23.19
2018-05-26T05:52:36.854Z,23.19
2018-05-26T05:53:08.442Z,23.18
2018-05-26T05:53:40.037Z,23.20
2018-05-26T05:54:11.646Z,23.19
2018-05-26T05:54:43.241Z,23.19
2018-05-26T05:55:14.853Z,23.19
2018-05-26T05:55:46.438Z,23.19
2018-05-26T05:56:18.081Z,23.19
2018-05-26T05:56:49.670Z,23.18
2018-05-26T05:57:21.277Z,23.18
2018-05-26T05:57:52.865Z,23.18
2018-05-26T05:58:24.434Z,23.18
2018-05-26T05:58:56.012Z,23.17
2018-05-26T05:59:27.644Z,23.18
2018-05-26T05:59:59.248Z,23.17
2018-05-26T06:00:30.849Z,23.18
2018-05-26T06:01:02.449Z,23.17
2018-05-26T06:01:40.154Z,23.18
2018-05-26T06:02:11.763Z,23.17
2018-05-26T06:02:43.369Z,23.18
2018-05-26T06:03:14.975Z,23.18
2018-05-26T06:03:46.561Z,23.17
2018-05-26T06:04:18.169Z,23.17
2018-05-26T06:04:49.850Z,23.18
2018-05-26T06:05:21.424Z,23.15
2018-05-26T06:05:53.030Z,23.17
2018-05-26T06:06:24.614Z,23.16
2018-05-26T06:06:56.198Z,23.16
2018-05-26T06:07:27.799Z,23.17
2018-05-26T06:07:59.409Z,23.17
2018-05-26T06:08:31.004Z,23.16
2018-05-26T06:09:02.591Z,23.17
2018-05-26T06:09:34.198Z,23.17
2018-05-26T06:10:05.840Z,23.17
2018-05-26T06:10:37.412Z,23.17
2018-05-26T06:11:09.087Z,23.17
2018-05-26T06:11:40.698Z,23.17
2018-05-26T06:12:12.301Z,23.16
2018-05-26T06:12:43.911Z,23.16
2018-05-26T06:13:15.498Z,23.13
2018-05-26T06:13:47.089Z,23.16
2018-05-26T06:14:18.706Z,23.16
2018-05-26T06:14:50.306Z,23.16
2018-05-26T06:15:21.955Z,23.17
2018-05-26T06:15:53.549Z,23.17
2018-05-26T06:16:25.166Z,23.17
2018-05-26T06:16:56.774Z,23.16
2018-05-26T06:17:28.377Z,23.16
2018-05-26T06:17:59.971Z,23.18
2018-05-26T06:18:31.585Z,23.16
2018-05-26T06:19:03.174Z,23.16
2018-05-26T06:19:34.792Z,23.17
2018-05-26T06:20:06.398Z,23.18
2018-05-26T06:20:37.980Z,23.17
2018-05-26T06:21:09.580Z,23.20
2018-05-26T06:21:41.164Z,23.19
2018-05-26T06:22:12.772Z,23.21
2018-05-26T06:22:44.428Z,23.22
2018-05-26T06:23:16.006Z,23.22
2018-05-26T06:23:47.611Z,23.23
2018-05-26T06:24:19.193Z,23.25
2018-05-26T06:24:50.842Z,23.26
2018-05-26T06:25:22.440Z,23.27
2018-05-26T06:25:54.076Z,23.27
2018-05-26T06:26:25.717Z,23.29
2018-05-26T06:26:57.267Z,23.28
2018-05-26T06:27:28.869Z,23.31
2018-05-26T06:28:00.464Z,23.33
2018-05-26T06:28:32.046Z,23.36
2018-05-26T06:29:03.649Z,23.38
2018-05-26T06:29:35.266Z,23.39
2018-05-26T06:30:06.900Z,23.40
2018-05-26T06:30:38.486Z,23.41
2018-05-26T06:31:10.080Z,23.42
2018-05-26T06:31:41.668Z,23.43
2018-05-26T06:32:13.274Z,23.46
2018-05-26T06:32:44.872Z,23.47
2018-05-26T06:33:16.478Z,23.50
2018-05-26T06:33:48.061Z,23.51
2018-05-26T06:34:19.675Z,23.52
2018-05-26T06:34:51.274Z,23.53
2018-05-26T06:35:22.887Z,23.54
2018-05-26T06:35:54.512Z,23.54
2018-05-26T06:36:26.126Z,23.53
2018-05-26T06:36:57.717Z,23.50
2018-05-26T06:37:29.308Z,23.54
2018-05-26T06:38:00.963Z,23.56
2018-05-26T06:38:32.560Z,23.57
2018-05-26T06:39:04.132Z,23.56
2018-05-26T06:39:35.726Z,23.60
2018-05-26T06:40:07.302Z,23.60
2018-05-26T06:40:38.910Z,23.60
2018-05-26T06:41:10.501Z,23.61
2018-05-26T06:41:42.092Z,23.68
2018-05-26T06:42:13.702Z,23.75
2018-05-26T06:42:45.309Z,23.76
2018-05-26T06:43:16.890Z,23.76
2018-05-26T06:43:48.498Z,23.75
2018-05-26T06:44:20.105Z,23.74
2018-05-26T06:44:51.694Z,23.75
2018-05-26T06:45:23.330Z,23.81
2018-05-26T06:45:54.912Z,23.87
2018-05-26T06:46:26.498Z,23.82
2018-05-26T06:46:58.192Z,23.85
2018-05-26T06:47:29.814Z,23.83
2018-05-26T06:48:01.410Z,23.79
2018-05-26T06:48:33.022Z,23.76
2018-05-26T06:49:04.593Z,23.74